Arivaca, Arizona
Current Conditions -  °F | °C
As of 5:54 AM on Thursday 27 Nov 2014 (Local Time) from KOLS Reporting Station
Clear Clear  
Wind Chill: 48°   Ceiling: Unl
Heat Index: 48°   Visibility: 10mi
Dew Point: 20°   Wind: 0mph
Humidity: 33%   Direction: NA
Pressure: 30.26"   Gusts: NA
Location:  31.57°N, 111.33°W
Report Text: KOLS 271254Z AUTO 00000KT 10SM CLR 09/M07 A3026 RMK AO2 SLP211 T00891067
Loading
Personal Weather Stations






























Interactive Weather Map New forecast layout! Learn more

10-Day Weather Forecast

Advertisements
Track Severe Weather on mobile